Time;durP1;ratioP1;P1;durP2;ratioP2;P2;SDS_P1;SDS_P2;PMS_P1;PMS_P2;Temp;Humidity;BMP_temperature;BMP_pressure;BME280_temperature;BME280_humidity;BME280_pressure;Samples;Min_cycle;Max_cycle;Signal;HPM_P1;HPM_P2
2023/01/10 00:01:35;;;;;;;;;;;;;;;;;;5085546;28;19916;-68
2023/01/10 00:04:01;;;;;;;;;;;;;;;;;;5090104;28;19937;-68
2023/01/10 00:06:26;;;;;;;;;;;;;;;;;;5089950;28;20346;-68
2023/01/10 00:08:52;;;;;;;;;;;;;;;;;;5089810;28;20371;-68
2023/01/10 00:14:03;;;;;;;;;;;;;;;;;;5091925;28;19919;-68
2023/01/10 00:16:29;;;;;;;;;;;;;;;;;;5090669;28;19916;-68
2023/01/10 00:18:55;;;;;;;;;;;;;;;;;;5093873;28;19961;-68
2023/01/10 00:21:20;;;;;;;;;;;;;;;;;;5095254;28;19934;-68
2023/01/10 00:23:47;;;;;;;;;;;;;;;;;;5095566;28;20388;-68
2023/01/10 00:26:13;;;;;;;;;;;;;;;;;;5093642;28;19912;-68
2023/01/10 00:28:40;;;;;;;;;;;;;;;;;;5095447;28;19965;-68
2023/01/10 00:31:07;;;;;;;;;;;;;;;;;;5094751;28;19947;-68
2023/01/10 00:33:33;;;;;;;;;;;;;;;;;;5083074;28;19920;-68
2023/01/10 00:35:59;;;;;;;;;;;;;;;;;;5075039;28;19928;-68
2023/01/10 00:38:24;;;;;;;;;;;;;;;;;;5074946;28;19950;-68
2023/01/10 00:40:50;;;;;;;;;;;;;;;;;;5076288;28;19919;-68
2023/01/10 00:46:01;;;;;;;;;;;;;;;;;;5083008;28;19963;-68
2023/01/10 00:48:27;;;;;;;;;;;;;;;;;;5094809;28;19912;-68
2023/01/10 00:50:53;;;;;;;;;;;;;;;;;;5095010;28;19919;-68
2023/01/10 00:53:19;;;;;;;;;;;;;;;;;;5094988;28;19919;-68
2023/01/10 00:55:45;;;;;;;;;;;;;;;;;;5093030;28;20284;-68
2023/01/10 00:58:11;;;;;;;;;;;;;;;;;;5094784;28;20292;-68
2023/01/10 01:00:37;;;;;;;;;;;;;;;;;;5088714;28;20283;-68
2023/01/10 01:03:03;;;;;;;;;;;;;;;;;;5074705;28;19917;-68
2023/01/10 01:05:29;;;;;;;;;;;;;;;;;;5082104;28;20009;-68
2023/01/10 01:07:55;;;;;;;;;;;;;;;;;;5082899;28;19912;-68
2023/01/10 01:10:27;;;;;;;;;;;;;;;;;;5074423;28;19912;-68
2023/01/10 01:12:53;;;;;;;;;;;;;;;;;;5092997;28;19999;-68
2023/01/10 01:15:20;;;;;;;;;;;;;;;;;;5094228;28;20359;-68
2023/01/10 01:17:46;;;;;;;;;;;;;;;;;;5094090;28;19974;-68
2023/01/10 01:20:12;;;;;;;;;;;;;;;;;;5087060;28;19920;-68
2023/01/10 01:22:38;;;;;;;;;;;;;;;;;;5087811;28;19915;-68
2023/01/10 01:25:04;;;;;;;;;;;;;;;;;;5094701;28;19912;-68
2023/01/10 01:27:30;;;;;;;;;;;;;;;;;;5074285;28;19932;-68
2023/01/10 01:29:56;;;;;;;;;;;;;;;;;;5073740;28;20353;-68
2023/01/10 01:32:22;;;;;;;;;;;;;;;;;;5074259;28;20054;-68
2023/01/10 01:34:48;;;;;;;;;;;;;;;;;;5074158;28;19962;-68
2023/01/10 01:37:14;;;;;;;;;;;;;;;;;;5074087;28;19947;-68
2023/01/10 01:39:40;;;;;;;;;;;;;;;;;;5094075;28;19990;-68
2023/01/10 01:42:06;;;;;;;;;;;;;;;;;;5094265;28;20254;-68
2023/01/10 01:44:31;;;;;;;;;;;;;;;;;;5094215;28;20297;-68
2023/01/10 01:46:57;;;;;;;;;;;;;;;;;;5094096;28;19909;-68
2023/01/10 01:49:23;;;;;;;;;;;;;;;;;;5093976;28;20283;-68
2023/01/10 01:51:49;;;;;;;;;;;;;;;;;;5085619;28;20003;-69
2023/01/10 01:54:15;;;;;;;;;;;;;;;;;;5073792;28;20357;-68
2023/01/10 01:56:41;;;;;;;;;;;;;;;;;;5079758;28;19916;-67
2023/01/10 01:59:07;;;;;;;;;;;;;;;;;;5092007;28;19920;-68
2023/01/10 02:01:33;;;;;;;;;;;;;;;;;;5084602;28;20277;-68
2023/01/10 02:03:59;;;;;;;;;;;;;;;;;;5073554;28;19913;-67
2023/01/10 02:06:25;;;;;;;;;;;;;;;;;;5075555;28;19919;-68
2023/01/10 02:08:51;;;;;;;;;;;;;;;;;;5085371;28;19957;-68
2023/01/10 02:11:17;;;;;;;;;;;;;;;;;;5092783;28;19916;-68
2023/01/10 02:13:43;;;;;;;;;;;;;;;;;;5091637;28;19972;-68
2023/01/10 02:16:09;;;;;;;;;;;;;;;;;;5080239;28;20438;-68
2023/01/10 02:18:35;;;;;;;;;;;;;;;;;;5073150;28;19991;-68
2023/01/10 02:21:01;;;;;;;;;;;;;;;;;;5074313;28;20051;-68
2023/01/10 02:23:26;;;;;;;;;;;5.10;88.70;;;;;;5073989;28;20042;-68
2023/01/10 02:25:55;;;;;;;;;;;5.20;89.40;;;;;;5071932;28;20015;-68
2023/01/10 02:28:21;;;;;;;;;;;;;;;;;;5073908;28;19908;-68
2023/01/10 02:30:47;;;;;;;;;;;;;;;;;;5080385;28;19920;-68
2023/01/10 02:33:12;;;;;;;;;;;;;;;;;;5085661;28;19923;-67
2023/01/10 02:35:38;;;;;;;;;;;;;;;;;;5072675;28;19923;-68
2023/01/10 02:38:04;;;;;;;;;;;;;;;;;;5078100;28;20003;-68
2023/01/10 02:40:30;;;;;;;;;;;;;;;;;;5079076;28;20007;-68
2023/01/10 02:42:56;;;;;;;;;;;;;;;;;;5072729;28;19909;-68
2023/01/10 02:45:22;;;;;;;;;;;;;;;;;;5092816;28;19912;-67
2023/01/10 02:47:48;;;;;;;;;;;;;;;;;;5092993;28;20323;-67
2023/01/10 02:50:14;;;;;;;;;;;;;;;;;;5092834;28;20364;-68
2023/01/10 02:52:40;;;;;;;;;;;;;;;;;;5092967;28;19912;-67
2023/01/10 02:55:06;;;;;;;;;;;;;;;;;;5092843;28;19962;-67
2023/01/10 02:57:32;;;;;;;;;;;;;;;;;;5072608;28;20288;-68
2023/01/10 02:59:58;;;;;;;;;;;;;;;;;;5078583;28;20422;-68
2023/01/10 03:02:24;;;;;;;;;;;;;;;;;;5092500;28;19912;-68
2023/01/10 03:04:50;;;;;;;;;;;;;;;;;;5071835;28;20046;-68
2023/01/10 03:07:17;;;;;;;;;;;;;;;;;;5082322;28;19912;-68
2023/01/10 03:09:43;;;;;;;;;;;;;;;;;;5073432;28;19922;-68
2023/01/10 03:12:09;;;;;;;;;;;;;;;;;;5072359;28;19995;-68
2023/01/10 03:14:35;;;;;;;;;;;;;;;;;;5073435;28;20007;-68
2023/01/10 03:17:00;;;;;;;;;;;;;;;;;;5072266;28;20334;-68
2023/01/10 03:19:26;;;;;;;;;;;;;;;;;;5072049;28;20384;-67
2023/01/10 03:21:52;;;;;;;;;;;;;;;;;;5078910;28;19966;-67
2023/01/10 03:24:18;;;;;;;;;;;;;;;;;;5084724;28;19913;-67
2023/01/10 03:26:44;;;;;;;;;;;;;;;;;;5084467;28;20320;-68
2023/01/10 03:29:10;;;;;;;;;;;;;;;;;;5091139;28;19977;-67
2023/01/10 03:31:36;;;;;;;;;;;;;;;;;;5073091;28;19908;-67
2023/01/10 03:34:02;;;;;;;;;;;;;;;;;;5075939;28;20106;-67
2023/01/10 03:36:29;;;;;;;;;;;;;;;;;;5070661;28;20351;-67
2023/01/10 03:38:55;;;;;;;;;;;;;;;;;;5078491;28;19916;-68
2023/01/10 03:41:21;;;;;;;;;;;;;;;;;;5086509;28;19919;-68
2023/01/10 03:46:32;;;;;;;;;;;;;;;;;;5072987;28;20016;-68
2023/01/10 03:48:58;;;;;;;;;;;;;;;;;;5071844;28;19955;-68
2023/01/10 03:51:24;;;;;;;;;;;;;;;;;;5077106;28;19944;-68
2023/01/10 03:53:50;;;;;;;;;;;;;;;;;;5088723;28;19920;-68
2023/01/10 03:56:16;;;;;;;;;;;;;;;;;;5087345;28;20393;-68
2023/01/10 03:58:42;;;;;;;;;;;;;;;;;;5096157;28;19908;-68
2023/01/10 04:01:07;;;;;;;;;;;;;;;;;;5085858;28;20281;-68
2023/01/10 04:03:33;;;;;;;;;;;;;;;;;;5076114;28;19999;-67
2023/01/10 04:05:59;;;;;;;;;;;;;;;;;;5094640;28;19947;-67
2023/01/10 04:08:25;;;;;;;;;;;;;;;;;;5081880;28;19919;-67
2023/01/10 04:10:51;;;;;;;;;;;;;;;;;;5074454;28;19908;-68
2023/01/10 04:13:17;;;;;;;;;;;;;;;;;;5083795;28;19919;-68
2023/01/10 04:15:43;;;;;;;;;;;;;;;;;;5083572;28;19934;-68
2023/01/10 04:18:09;;;;;;;;;;;;;;;;;;5075481;28;20369;-68
2023/01/10 04:20:35;;;;;;;;;;;;;;;;;;5074346;28;19909;-68
2023/01/10 04:23:01;;;;;;;;;;;;;;;;;;5092361;28;19912;-68
2023/01/10 04:25:27;;;;;;;;;;;;;;;;;;5095632;28;20318;-68
2023/01/10 04:27:53;;;;;;;;;;;;;;;;;;5095854;28;19969;-68
2023/01/10 04:30:19;;;;;;;;;;;;;;;;;;5087277;28;19912;-68
2023/01/10 04:32:45;;;;;;;;;;;;;;;;;;5075306;28;19909;-68
2023/01/10 04:35:11;;;;;;;;;;;;;;;;;;5077388;28;20394;-68
2023/01/10 04:37:37;;;;;;;;;;;;;;;;;;5075741;28;19916;-68
2023/01/10 04:40:03;;;;;;;;;;;;;;;;;;5071996;28;19935;-68
2023/01/10 04:42:29;;;;;;;;;;;;;;;;;;5074310;28;20409;-67
2023/01/10 04:44:55;;;;;;;;;;;;;;;;;;5075066;28;19912;-68
2023/01/10 04:47:20;;;;;;;;;;;4.90;85.20;;;;;;5074829;28;19961;-68
2023/01/10 04:49:46;;;;;;;;;;;;;;;;;;5074835;28;20050;-67
2023/01/10 04:52:12;;;;;;;;;;;;;;;;;;5074848;28;19909;-67
2023/01/10 04:54:38;;;;;;;;;;;;;;;;;;5074966;28;20050;-68
2023/01/10 04:57:05;;;;;;;;;;;;;;;;;;5074772;28;19999;-67
2023/01/10 04:59:31;;;;;;;;;;;;;;;;;;5074645;28;20013;-67
2023/01/10 05:01:57;;;;;;;;;;;;;;;;;;5074466;28;20373;-67
2023/01/10 05:04:23;;;;;;;;;;;;;;;;;;5072823;28;19908;-67
2023/01/10 05:06:49;;;;;;;;;;;;;;;;;;5074540;28;20403;-67
2023/01/10 05:09:15;;;;;;;;;;;;;;;;;;5074589;28;20194;-67
2023/01/10 05:11:40;;;;;;;;;;;;;;;;;;5073350;28;19951;-67
2023/01/10 05:14:06;;;;;;;;;;;;;;;;;;5074608;28;19904;-67
2023/01/10 05:16:32;;;;;;;;;;;;;;;;;;5074533;28;20384;-68
2023/01/10 05:18:58;;;;;;;;;;;;;;;;;;5074366;28;19916;-67
2023/01/10 05:21:24;;;;;;;;;;;;;;;;;;5073125;28;19909;-67
2023/01/10 05:23:50;;;;;;;;;;;;;;;;;;5074437;28;19915;-68
2023/01/10 05:26:16;;;;;;;;;;;;;;;;;;5073082;28;19915;-67
2023/01/10 05:28:42;;;;;;;;;;;;;;;;;;5074152;28;19908;-68
2023/01/10 05:31:08;;;;;;;;;;;;;;;;;;5074636;28;19908;-67
2023/01/10 05:33:34;;;;;;;;;;;;;;;;;;5074248;28;19908;-67
2023/01/10 05:36:00;;;;;;;;;;;;;;;;;;5074013;28;19916;-67
2023/01/10 05:38:26;;;;;;;;;;;;;;;;;;5074027;28;19915;-68
2023/01/10 05:40:51;;;;;;;;;;;;;;;;;;5074109;28;20392;-68
2023/01/10 05:43:17;;;;;;;;;;;;;;;;;;5074030;28;19909;-67
2023/01/10 05:45:43;;;;;;;;;;;;;;;;;;5074007;28;19919;-67
2023/01/10 05:48:09;;;;;;;;;;;;;;;;;;5073802;28;19909;-67
2023/01/10 05:50:35;;;;;;;;;;;;;;;;;;5073823;28;20006;-67
2023/01/10 05:53:04;;;;;;;;;;;;;;;;;;5073887;28;20281;-67
2023/01/10 05:55:30;;;;;;;;;;;;;;;;;;5073792;28;19944;-67
2023/01/10 05:57:56;;;;;;;;;;;;;;;;;;5073660;28;19970;-68
2023/01/10 06:00:22;;;;;;;;;;;;;;;;;;5073582;28;20385;-67
2023/01/10 06:02:48;;;;;;;;;;;;;;;;;;5073713;28;19909;-68
2023/01/10 06:05:14;;;;;;;;;;;;;;;;;;5073493;28;20348;-68
2023/01/10 06:07:40;;;;;;;;;;;;;;;;;;5072314;28;19909;-68
2023/01/10 06:10:05;;;;;;;;;;;;;;;;;;5072059;28;19908;-67
2023/01/10 06:12:31;;;;;;;;;;;;;;;;;;5072268;28;20003;-68
2023/01/10 06:14:57;;;;;;;;;;;;;;;;;;5073141;28;19951;-67
2023/01/10 06:17:23;;;;;;;;;;;;;;;;;;5072796;28;19920;-67
2023/01/10 06:19:51;;;;;;;;;;;;;;;;;;5073111;28;19908;-68
2023/01/10 06:22:16;;;;;;;;;;;;;;;;;;5071909;28;19908;-68
2023/01/10 06:24:43;;;;;;;;;;;;;;;;;;5073245;28;19919;-68
2023/01/10 06:27:08;;;;;;;;;;;;;;;;;;5073156;28;19908;-67
2023/01/10 06:29:34;;;;;;;;;;;;;;;;;;5073010;28;20296;-67
2023/01/10 06:32:00;;;;;;;;;;;;;;;;;;5071875;28;19908;-68
2023/01/10 06:34:26;;;;;;;;;;;;;;;;;;5071734;28;19927;-68
2023/01/10 06:36:52;;;;;;;;;;;;;;;;;;5072797;28;19916;-67
2023/01/10 06:39:18;;;;;;;;;;;;;;;;;;5071873;28;19931;-67
2023/01/10 06:41:44;;;;;;;;;;;;;;;;;;5072976;28;20018;-67
2023/01/10 06:44:10;;;;;;;;;;;;;;;;;;5072897;28;20385;-67
2023/01/10 06:46:36;;;;;;;;;;;;;;;;;;5072737;28;20292;-68
2023/01/10 06:49:02;;;;;;;;;;;;;;;;;;5072625;28;19916;-67
2023/01/10 06:51:28;;;;;;;;;;;;;;;;;;5072788;28;19920;-68
2023/01/10 06:53:54;;;;;;;;;;;;;;;;;;5072685;28;19961;-68
2023/01/10 06:56:19;;;;;;;;;;;;;;;;;;5072536;28;20361;-67
2023/01/10 06:58:45;;;;;;;;;;;;;;;;;;5072465;28;19915;-67
2023/01/10 07:01:11;;;;;;;;;;;;;;;;;;5072532;28;19909;-68
2023/01/10 07:03:39;;;;;;;;;;;;;;;;;;5072586;28;19908;-67
2023/01/10 07:06:08;;;;;;;;;;;;;;;;;;5072496;28;19915;-68
2023/01/10 07:08:34;;;;;;;;;;;;;;;;;;5072267;28;19923;-67
2023/01/10 07:11:00;;;;;;;;;;;;;;;;;;5072496;28;19909;-67
2023/01/10 07:13:26;;;;;;;;;;;;;;;;;;5072446;28;20375;-68
2023/01/10 07:15:52;;;;;;;;;;;;;;;;;;5072300;28;19962;-68
2023/01/10 07:18:18;;;;;;;;;;;;;;;;;;5072108;28;20379;-68
2023/01/10 07:20:44;;;;;;;;;;;;;;;;;;5071002;28;20007;-67
2023/01/10 07:23:10;;;;;;;;;;;;;;;;;;5072383;28;19909;-67
2023/01/10 07:25:36;;;;;;;;;;;;;;;;;;5071013;28;20268;-67
2023/01/10 07:28:02;;;;;;;;;;;;;;;;;;5071829;28;20430;-67
2023/01/10 07:30:28;;;;;;;;;;;;;;;;;;5072148;28;19958;-67
2023/01/10 07:32:54;;;;;;;;;;;;;;;;;;5072147;28;19960;-68
2023/01/10 07:35:20;;;;;;;;;;;;;;;;;;5071849;28;19921;-68
2023/01/10 07:37:47;;;;;;;;;;;;;;;;;;5071082;28;21469;-68
2023/01/10 07:40:13;;;;;;;;;;;;;;;;;;5072217;28;19912;-67
2023/01/10 07:42:39;;;;;;;;;;;;;;;;;;5072116;28;19909;-67
2023/01/10 07:45:07;;;;;;;;;;;;;;;;;;5072044;28;19909;-67
2023/01/10 07:47:33;;;;;;;;;;;;;;;;;;5071907;28;19913;-67
2023/01/10 07:49:59;;;;;;;;;;;;;;;;;;5072395;28;19919;-67
2023/01/10 07:52:25;;;;;;;;;;;;;;;;;;5071944;28;19954;-68
2023/01/10 07:54:52;;;;;;;;;;;;;;;;;;5070695;28;19908;-67
2023/01/10 07:57:17;;;;;;;;;;;;;;;;;;5070540;28;19912;-67
2023/01/10 07:59:44;;;;;;;;;;;;;;;;;;5070441;28;20002;-68
2023/01/10 08:02:09;;;;;;;;;;;;;;;;;;5071928;28;19952;-67
2023/01/10 08:04:37;;;;;;;;;;;;;;;;;;5071877;28;20304;-68
2023/01/10 08:07:02;;;;;;;;;;;;;;;;;;5071841;28;19908;-67
2023/01/10 08:09:28;;;;;;;;;;;;;;;;;;5071676;28;19908;-68
2023/01/10 08:11:54;;;;;;;;;;;;;;;;;;5071844;28;19915;-67
2023/01/10 08:14:20;;;;;;;;;;;;;;;;;;5071776;28;19985;-68
2023/01/10 08:16:46;;;;;;;;;;;;;;;;;;5072005;28;19919;-68
2023/01/10 08:19:15;;;;;;;;;;;;;;;;;;5070216;28;19916;-67
2023/01/10 08:21:41;;;;;;;;;;;;;;;;;;5071811;28;19919;-67
2023/01/10 08:24:07;;;;;;;;;;;;;;;;;;5071957;28;19909;-68
2023/01/10 08:26:33;;;;;;;;;;;;;;;;;;5071651;28;19920;-67
2023/01/10 08:28:59;;;;;;;;;;;;;;;;;;5071451;28;20284;-68
2023/01/10 08:31:25;;;;;;;;;;;;;;;;;;5071626;28;19908;-67
2023/01/10 08:33:51;;;;;;;;;;;;;;;;;;5071445;28;19916;-68
2023/01/10 08:36:17;;;;;;;;;;;;;;;;;;5071330;28;19924;-68
2023/01/10 08:38:43;;;;;;;;;;;;;;;;;;5071566;28;19908;-67
2023/01/10 08:41:08;;;;;;;;;;;;;;;;;;5075319;28;19973;-68
2023/01/10 08:43:34;;;;;;;;;;;;;;;;;;5075219;28;20171;-67
2023/01/10 08:46:00;;;;;;;;;;;;;;;;;;5075608;28;19960;-68
2023/01/10 08:48:26;;;;;;;;;;;;;;;;;;5074880;28;19970;-68
2023/01/10 08:50:52;;;;;;;;;;;;;;;;;;5075127;28;19908;-67
2023/01/10 08:53:18;;;;;;;;;;;;;;;;;;5073812;28;19935;-68
2023/01/10 08:55:44;;;;;;;;;;;;;;;;;;5075009;28;19908;-67
2023/01/10 08:58:10;;;;;;;;;;;;;;;;;;5074777;28;19909;-68
2023/01/10 09:00:36;;;;;;;;;;;;;;;;;;5074910;28;20343;-67
2023/01/10 09:03:02;;;;;;;;;;;;;;;;;;5074814;28;20003;-67
2023/01/10 09:05:28;;;;;;;;;;;;;;;;;;5074854;28;20058;-68
2023/01/10 09:07:58;;;;;;;;;;;6.10;80.80;;;;;;5074982;28;19936;-68
2023/01/10 09:10:25;;;;;;;;;;;;;;;;;;5074639;28;19993;-68
2023/01/10 09:12:54;;;;;;;;;;;;;;;;;;5074693;28;19909;-68
2023/01/10 09:15:20;;;;;;;;;;;7.10;85.30;;;;;;5074666;28;19908;-68
2023/01/10 09:17:46;;;;;;;;;;;7.10;85.10;;;;;;5074361;28;19935;-67
2023/01/10 09:20:12;;;;;;;;;;;6.90;89.90;;;;;;5074381;28;20381;-65
2023/01/10 09:22:37;;;;;;;;;;;7.20;85.90;;;;;;5074487;28;20000;-65
2023/01/10 09:25:03;;;;;;;;;;;7.20;85.70;;;;;;5074424;28;19921;-65
2023/01/10 09:27:29;;;;;;;;;;;7.30;84.20;;;;;;5074328;28;19977;-65
2023/01/10 09:29:55;;;;;;;;;;;7.30;85.60;;;;;;5074167;28;19912;-65
2023/01/10 09:32:20;;;;;;;;;;;7.30;84.60;;;;;;5074207;28;19920;-65
2023/01/10 09:34:46;;;;;;;;;;;7.40;84.60;;;;;;5074164;28;19915;-65
2023/01/10 09:37:12;;;;;;;;;;;;;;;;;;5074079;28;19955;-62
2023/01/10 09:39:38;;;;;;;;;;;;;;;;;;5074095;28;19909;-62
2023/01/10 09:42:04;;;;;;;;;;;;;;;;;;5072887;28;19985;-62
2023/01/10 09:44:29;;;;;;;;;;;;;;;;;;5074167;28;19909;-62
2023/01/10 09:46:55;;;;;;;;;;;;;;;;;;5073895;28;19931;-62
2023/01/10 09:49:21;;;;;;;;;;;;;;;;;;5073867;28;19912;-62
2023/01/10 09:51:50;;;;;;;;;;;;;;;;;;5073758;28;19909;-62
2023/01/10 09:54:16;;;;;;;;;;;;;;;;;;5073908;28;19909;-61
2023/01/10 09:56:42;;;;;;;;;;;;;;;;;;5072441;28;20387;-61
2023/01/10 09:59:08;;;;;;;;;;;;;;;;;;5073637;28;20395;-62
2023/01/10 10:01:37;;;;;;;;;;;;;;;;;;5073698;28;19960;-62
2023/01/10 10:04:03;;;;;;;;;;;;;;;;;;5073777;28;19971;-61
2023/01/10 10:06:29;;;;;;;;;;;;;;;;;;5073639;28;20423;-62
2023/01/10 10:08:55;;;;;;;;;;;;;;;;;;5073426;28;19912;-62
2023/01/10 10:11:21;;;;;;;;;;;;;;;;;;5073520;28;19954;-62
2023/01/10 10:13:47;;;;;;;;;;;;;;;;;;5073550;28;19913;-62
2023/01/10 10:16:13;;;;;;;;;;;;;;;;;;5073273;28;19916;-62
2023/01/10 10:18:39;;;;;;;;;;;;;;;;;;5073276;28;19931;-61
2023/01/10 10:21:06;;;;;;;;;;;;;;;;;;5073398;28;20360;-62
2023/01/10 10:23:32;;;;;;;;;;;;;;;;;;5073260;28;20302;-62
2023/01/10 10:25:58;;;;;;;;;;;;;;;;;;5073349;28;19911;-62
2023/01/10 10:28:30;;;;;;;;;;;;;;;;;;5072959;28;19912;-62
2023/01/10 10:30:56;;;;;;;;;;;;;;;;;;5073411;28;19911;-62
2023/01/10 10:33:22;;;;;;;;;;;;;;;;;;5073143;28;19908;-62
2023/01/10 10:35:48;;;;;;;;;;;;;;;;;;5072846;28;19935;-62
2023/01/10 10:38:13;;;;;;;;;;;;;;;;;;5072724;28;19912;-62
2023/01/10 10:40:40;;;;;;;;;;;;;;;;;;5073044;28;19908;-62
2023/01/10 10:43:06;;;;;;;;;;;;;;;;;;5072879;28;19908;-62
2023/01/10 10:45:32;;;;;;;;;;;;;;;;;;5071632;28;19932;-62
2023/01/10 10:47:59;;;;;;;;;;;;;;;;;;5072901;28;19916;-62
2023/01/10 10:50:25;;;;;;;;;;;;;;;;;;5072605;28;19962;-62
2023/01/10 10:52:51;;;;;;;;;;;;;;;;;;5072804;28;20335;-62
2023/01/10 10:55:17;;;;;;;;;;;;;;;;;;5072681;28;19912;-62
2023/01/10 10:57:43;;;;;;;;;;;;;;;;;;5072595;28;19923;-62
2023/01/10 11:00:09;;;;;;;;;;;;;;;;;;5072663;28;20082;-62
2023/01/10 11:02:35;;;;;;;;;;;;;;;;;;5072066;28;19909;-62
2023/01/10 11:05:01;;;;;;;;;;;;;;;;;;5072519;28;19916;-62
2023/01/10 11:07:27;;;;;;;;;;;;;;;;;;5071165;28;19915;-62
2023/01/10 11:09:57;;;;;;;;;;;;;;;;;;5072278;28;19947;-62
2023/01/10 11:12:23;;;;;;;;;;;;;;;;;;5072420;28;19944;-62
2023/01/10 11:14:50;;;;;;;;;;;;;;;;;;5072379;28;19952;-62
2023/01/10 11:17:16;;;;;;;;;;;;;;;;;;5072184;28;19957;-62
2023/01/10 11:19:42;;;;;;;;;;;;;;;;;;5072137;28;19913;-62
2023/01/10 11:22:07;;;;;;;;;;;;;;;;;;5075684;28;19963;-62
2023/01/10 11:24:33;;;;;;;;;;;;;;;;;;5077453;28;19994;-62
2023/01/10 11:26:59;;;;;;;;;;;;;;;;;;5099973;28;19916;-62
2023/01/10 11:29:25;;;;;;;;;;;;;;;;;;5092096;28;20373;-62
2023/01/10 11:31:51;;;;;;;;;;;;;;;;;;5075921;28;19940;-62
2023/01/10 11:34:17;;;;;;;;;;;;;;;;;;5075904;28;19912;-61
2023/01/10 11:36:43;;;;;;;;;;;;;;;;;;5076375;28;20289;-62
2023/01/10 11:39:09;;;;;;;;;;;;;;;;;;5089613;28;19973;-62
2023/01/10 11:41:35;;;;;;;;;;;;;;;;;;5087392;28;19959;-62
2023/01/10 11:44:01;;;;;;;;;;;;;;;;;;5077954;28;19912;-62
2023/01/10 11:46:27;;;;;;;;;;;;;;;;;;5091796;28;19912;-62
2023/01/10 11:48:52;;;;;;;;;;;;;;;;;;5075650;28;20281;-62
2023/01/10 11:51:19;;;;;;;;;;;;;;;;;;5076468;28;19913;-62
2023/01/10 11:53:45;;;;;;;;;;;;;;;;;;5088973;28;19912;-62
2023/01/10 11:56:10;;;;;;;;;;;;;;;;;;5071210;28;19920;-62
2023/01/10 11:58:37;;;;;;;;;;;;;;;;;;5071617;28;19938;-62
2023/01/10 12:01:03;;;;;;;;;;;;;;;;;;5079659;28;20061;-62
2023/01/10 12:03:29;;;;;;;;;;;;;;;;;;5089863;28;19919;-62
2023/01/10 12:05:55;;;;;;;;;;;;;;;;;;5091332;28;19965;-62
2023/01/10 12:08:21;;;;;;;;;;;;;;;;;;5091698;28;19991;-62
2023/01/10 12:10:47;;;;;;;;;;;;;;;;;;5091359;28;20291;-62
2023/01/10 12:13:13;;;;;;;;;;;;;;;;;;5087556;28;20449;-62
2023/01/10 12:15:38;;;;;;;;;;;;;;;;;;5080096;28;19958;-62
2023/01/10 12:18:04;;;;;;;;;;;;;;;;;;5094976;28;19943;-62
2023/01/10 12:20:30;;;;;;;;;;;;;;;;;;5077289;28;19960;-63
2023/01/10 12:22:56;;;;;;;;;;;;;;;;;;5088185;28;20423;-63
2023/01/10 12:25:23;;;;;;;;;;;;;;;;;;5075423;28;20004;-63
2023/01/10 12:27:49;;;;;;;;;;;;;;;;;;5074975;28;19955;-63
2023/01/10 12:30:15;;;;;;;;;;;;;;;;;;5085875;28;19918;-63
2023/01/10 12:32:41;;;;;;;;;;;;;;;;;;5107278;28;20300;-63
2023/01/10 12:35:07;;;;;;;;;;;;;;;;;;5095003;28;20360;-63
2023/01/10 12:37:33;;;;;;;;;;;;;;;;;;5093080;28;19965;-63
2023/01/10 12:39:59;;;;;;;;;;;;;;;;;;5082276;28;20011;-63
2023/01/10 12:45:10;;;;;;;;;;;;;;;;;;5094472;28;19916;-63
2023/01/10 12:47:36;;;;;;;;;;;;;;;;;;5078374;28;19912;-63
2023/01/10 12:50:02;;;;;;;;;;;;;;;;;;5091808;28;19912;-63
2023/01/10 12:52:28;;;;;;;;;;;;;;;;;;5074868;28;19981;-63
2023/01/10 12:54:53;;;;;;;;;;;;;;;;;;5083032;28;20385;-63
2023/01/10 12:57:19;;;;;;;;;;;;;;;;;;5093047;28;19916;-63
2023/01/10 12:59:45;;;;;;;;;;;;;;;;;;5091248;28;20006;-63
2023/01/10 13:02:11;;;;;;;;;;;;;;;;;;5075931;28;20005;-63
2023/01/10 13:04:37;;;;;;;;;;;;;;;;;;5076157;28;20109;-63
2023/01/10 13:07:03;;;;;;;;;;;;;;;;;;5088143;28;19989;-63
2023/01/10 13:09:29;;;;;;;;;;;;;;;;;;5092764;28;19912;-63
2023/01/10 13:11:55;;;;;;;;;;;;;;;;;;5082340;28;19921;-63
2023/01/10 13:14:21;;;;;;;;;;;;;;;;;;5091941;28;19953;-63
2023/01/10 13:16:47;;;;;;;;;;;;;;;;;;5086000;28;19962;-63
2023/01/10 13:19:13;;;;;;;;;;;;;;;;;;5074763;28;19912;-63
2023/01/10 13:21:39;;;;;;;;;;;;;;;;;;5094737;28;19919;-62
2023/01/10 13:24:05;;;;;;;;;;;;;;;;;;5093619;28;19915;-64
2023/01/10 13:26:31;;;;;;;;;;;;;;;;;;5094622;28;19912;-64
2023/01/10 13:28:57;;;;;;;;;;;;;;;;;;5094892;28;20364;-64
2023/01/10 13:31:23;;;;;;;;;;;;;;;;;;5081820;28;19999;-62
2023/01/10 13:33:49;;;;;;;;;;;;;;;;;;5074311;28;20395;-62
2023/01/10 13:36:15;;;;;;;;;;;;;;;;;;5073937;28;19921;-62
2023/01/10 13:38:41;;;;;;;;;;;;;;;;;;5074085;28;20046;-62
2023/01/10 13:41:07;;;;;;;;;;;;;;;;;;5074037;28;19948;-62
2023/01/10 13:43:33;;;;;;;;;;;;;;;;;;5092225;28;20394;-62
2023/01/10 13:45:59;;;;;;;;;;;;;;;;;;5085819;28;19916;-63
2023/01/10 13:48:25;;;;;;;;;;;;;;;;;;5082539;28;20391;-62
2023/01/10 13:50:51;;;;;;;;;;;;;;;;;;5092867;28;19908;-62
2023/01/10 13:53:17;;;;;;;;;;;;;;;;;;5085740;28;20431;-62
2023/01/10 13:55:45;;;;;;;;;;;;;;;;;;5090309;28;19916;-62
2023/01/10 13:58:11;;;;;;;;;;;;;;;;;;5093662;28;19919;-62
2023/01/10 14:03:21;;;;;;;;;;;;;;;;;;5086355;28;20300;-62
2023/01/10 14:05:47;;;;;;;;;;;;;;;;;;5093931;28;19908;-62
2023/01/10 14:08:13;;;;;;;;;;;;;;;;;;5092344;28;19919;-62
2023/01/10 14:10:39;;;;;;;;;;;;;;;;;;5085009;28;20437;-62
2023/01/10 14:13:08;;;;;;;;;;;;;;;;;;5081938;28;19909;-64
2023/01/10 14:15:34;;;;;;;;;;;;;;;;;;5077593;28;20335;-64
2023/01/10 14:18:00;;;;;;;;;;;;;;;;;;5073401;28;19913;-63
2023/01/10 14:20:26;;;;;;;;;;;;;;;;;;5088472;28;19961;-63
2023/01/10 14:22:52;;;;;;;;;;;;;;;;;;5080911;28;19956;-63
2023/01/10 14:25:18;;;;;;;;;;;;;;;;;;5092852;28;19908;-63
2023/01/10 14:27:44;;;;;;;;;;;;;;;;;;5076041;28;19916;-63
2023/01/10 14:30:10;;;;;;;;;;;;;;;;;;5082296;28;19941;-64
2023/01/10 14:32:37;;;;;;;;;;;;;;;;;;5083218;28;20117;-63
2023/01/10 14:35:03;;;;;;;;;;;;;;;;;;5102213;28;19912;-63
2023/01/10 14:37:30;;;;;;;;;;;;;;;;;;5091037;28;19912;-63
2023/01/10 14:39:56;;;;;;;;;;;;;;;;;;5080683;28;19909;-63
2023/01/10 14:42:22;;;;;;;;;;;;;;;;;;5072974;28;20335;-63
2023/01/10 14:44:48;;;;;;;;;;;;;;;;;;5072840;28;19915;-63
2023/01/10 14:47:14;;;;;;;;;;;;;;;;;;5072790;28;20010;-63
2023/01/10 14:49:40;;;;;;;;;;;;;;;;;;5072679;28;19908;-65
2023/01/10 14:52:06;;;;;;;;;;;;;;;;;;5084840;28;19954;-65
2023/01/10 14:54:32;;;;;;;;;;;;;;;;;;5085058;28;19916;-64
2023/01/10 14:56:58;;;;;;;;;;;;;;;;;;5071999;28;19978;-64
2023/01/10 14:59:24;;;;;;;;;;;;;;;;;;5092638;28;20388;-64
2023/01/10 15:01:50;;;;;;;;;;;19.50;38.40;;;;;;5078270;28;20360;-65
2023/01/10 15:04:16;;;;;;;;;;;;;;;;;;5072721;28;19908;-65
2023/01/10 15:06:42;;;;;;;;;;;;;;;;;;5072501;28;20003;-65
2023/01/10 15:09:08;;;;;;;;;;;;;;;;;;5072258;28;19944;-65
2023/01/10 15:11:34;;;;;;;;;;;;;;;;;;5072478;28;20336;-64
2023/01/10 15:14:02;;;;;;;;;;;;;;;;;;5072936;28;19956;-64
2023/01/10 15:16:28;;;;;;;;;;;;;;;;;;5072278;28;19920;-65
2023/01/10 15:18:55;;;;;;;;;;;;;;;;;;5072272;28;19998;-64
2023/01/10 15:21:23;;;;;;;;;;;;;;;;;;5072351;28;19944;-65
2023/01/10 15:23:49;;;;;;;;;;;;;;;;;;5070928;28;19947;-64
2023/01/10 15:26:15;;;;;;;;;;;;;;;;;;5072181;28;19908;-65
2023/01/10 15:28:41;;;;;;;;;;;;;;;;;;5072163;28;19909;-65
2023/01/10 15:31:07;;;;;;;;;;;;;;;;;;5072297;28;19915;-64
2023/01/10 15:33:33;;;;;;;;;;;;;;;;;;5072341;28;19908;-65
2023/01/10 15:35:59;;;;;;;;;;;;;;;;;;5072142;28;20011;-64
2023/01/10 15:38:29;;;;;;;;;;;;;;;;;;5072031;28;19940;-64
2023/01/10 15:40:56;;;;;;;;;;;;;;;;;;5072720;28;19915;-65
2023/01/10 15:43:22;;;;;;;;;;;;;;;;;;5072157;28;19909;-65
2023/01/10 15:45:48;;;;;;;;;;;;;;;;;;5072122;28;19914;-64
2023/01/10 15:48:14;;;;;;;;;;;;;;;;;;5071547;28;20004;-65
2023/01/10 15:50:40;;;;;;;;;;;;;;;;;;5071981;28;19947;-64
2023/01/10 15:53:06;;;;;;;;;;;;;;;;;;5072005;28;19915;-64
2023/01/10 15:55:32;;;;;;;;;;;;;;;;;;5071962;28;19908;-65
2023/01/10 15:58:00;;;;;;;;;;;;;;;;;;5071862;28;19920;-65
2023/01/10 16:00:26;;;;;;;;;;;;;;;;;;5071779;28;19943;-65
2023/01/10 16:02:52;;;;;;;;;;;;;;;;;;5072017;28;20404;-65
2023/01/10 16:05:20;;;;;;;;;;;;;;;;;;5071872;28;19913;-64
2023/01/10 16:07:46;;;;;;;;;;;;;;;;;;5071892;28;19938;-64
2023/01/10 16:10:11;;;;;;;;;;;;;;;;;;5070370;28;20297;-65
2023/01/10 16:15:22;;;;;;;;;;;;;;;;;;5071860;28;19915;-64
2023/01/10 16:17:48;;;;;;;;;;;;;;;;;;5071670;28;19912;-65
2023/01/10 16:20:14;;;;;;;;;;;;;;;;;;5071697;28;19912;-64
2023/01/10 16:22:40;;;;;;;;;;;;;;;;;;5070383;28;19909;-64
2023/01/10 16:25:06;;;;;;;;;;;;;;;;;;5071777;28;20293;-64
2023/01/10 16:27:32;;;;;;;;;;;;;;;;;;5071679;28;19915;-65
2023/01/10 16:29:58;;;;;;;;;;;;;;;;;;5070228;28;19991;-64
2023/01/10 16:32:23;;;;;;;;;;;;;;;;;;5071672;28;19927;-64
2023/01/10 16:34:49;;;;;;;;;;;;;;;;;;5071539;28;20369;-65
2023/01/10 16:37:15;;;;;;;;;;;;;;;;;;5071470;28;19919;-64
2023/01/10 16:39:41;;;;;;;;;;;;;;;;;;5071507;28;19969;-64
2023/01/10 16:44:52;;;;;;;;;;;;;;;;;;5071586;28;20390;-65
2023/01/10 16:47:17;;;;;;;;;;;;;;;;;;5071387;28;19952;-65
2023/01/10 16:49:45;;;;;;;;;;;;;;;;;;5071371;28;19913;-63